Hlavní strana
METAR-TAF:

METAR-TAF

Letiště :

Astrachaň, Rusko

zeměpisná šířka: 46-17N, zeměpisná délka: 048-00-23E, výška: 0 m

Aktuální stav počasí

Zpráva byla vytvořena před 15 minutami, v 14:00 UTC
Západoseverozápadní vítr 14 kt
Teplota 13°C
Vlhkost vzduchu 82%
Tlak 1010 hPa
Viditelnost 10 km a více
Oblačno až skoro zataženo ve výšce 1300 ft

METAR: URWA 241400Z 29007MPS 9999 BKN013 13/10 Q1010 R27/150060 NOSIG RMK QFE760/1013

Čas: 18:15 (14:15 UTC)

Předpověď počasí

Zpráva byla vytvořena před 3 hodinami a 15 minutami, v 11:00 UTC
Předpověď platná od 24 v 12 UTC do 24 v 21 UTC
Západoseverozápadní vítr 16 kt s nárazy do 27 kt
Viditelnost 10 km a více
Oblačno až skoro zataženo ve výšce 800 ft
Polojasno ve výšce 2500 ft, Cumulonimbus.

TAF: URWA 241100Z 2412/2421 30008G14MPS 9999 BKN008 SCT025CB

Stav a předpovědi počasí z více než 4 000 letišť (zprávy METAR a TAF).

Červené a žluté tečky na mapě představují dostupné meteorologické stanice.

Když kurzor umístíte na tečku, zobrazí se název stanice.

Pak kliknutím zobrazíte stav a předpověď počasí.

Chcete-li změnit mapu, kliknutím na zelené tlačítko se znaménkem +mapu přiblížíte, kliknutím na zelené tlačítko se znaménkem – mapu oddálíte a kliknutím na zelené šipky přejdete na sousední mapy.


METAR-TAF: